sensor_id;sensor_type;location;lat;lon;timestamp;pressure;altitude;pressure_sealevel;temperature;humidity
52927;BME280;40783;49.710;8.842;2023-04-20T00:01:11;99187.34;;;4.41;85.92
52927;BME280;40783;49.710;8.842;2023-04-20T00:03:37;99193.09;;;4.35;86.03
52927;BME280;40783;49.710;8.842;2023-04-20T00:06:05;99198.88;;;4.40;85.53
52927;BME280;40783;49.710;8.842;2023-04-20T00:08:30;99179.38;;;4.41;85.38
52927;BME280;40783;49.710;8.842;2023-04-20T00:10:56;99176.47;;;4.33;86.12
52927;BME280;40783;49.710;8.842;2023-04-20T00:13:21;99177.69;;;4.28;85.36
52927;BME280;40783;49.710;8.842;2023-04-20T00:15:49;99167.44;;;4.24;85.73
52927;BME280;40783;49.710;8.842;2023-04-20T00:18:14;99169.00;;;4.15;86.52
52927;BME280;40783;49.710;8.842;2023-04-20T00:20:40;99161.16;;;4.13;86.38
52927;BME280;40783;49.710;8.842;2023-04-20T00:23:06;99161.16;;;4.13;86.84
52927;BME280;40783;49.710;8.842;2023-04-20T00:25:31;99153.59;;;4.09;86.64
52927;BME280;40783;49.710;8.842;2023-04-20T00:27:59;99145.41;;;4.12;85.83
52927;BME280;40783;49.710;8.842;2023-04-20T00:30:24;99144.94;;;4.07;86.29
52927;BME280;40783;49.710;8.842;2023-04-20T00:32:50;99144.94;;;4.07;86.83
52927;BME280;40783;49.710;8.842;2023-04-20T00:35:15;99144.69;;;4.10;86.04
52927;BME280;40783;49.710;8.842;2023-04-20T00:37:40;99136.50;;;4.01;86.61
52927;BME280;40783;49.710;8.842;2023-04-20T00:40:11;99141.06;;;3.99;87.06
52927;BME280;40783;49.710;8.842;2023-04-20T00:42:36;99133.81;;;3.90;86.47
52927;BME280;40783;49.710;8.842;2023-04-20T00:45:04;99123.47;;;3.87;87.40
52927;BME280;40783;49.710;8.842;2023-04-20T00:47:30;99131.84;;;3.81;87.31
52927;BME280;40783;49.710;8.842;2023-04-20T00:50:01;99131.56;;;3.72;88.03
52927;BME280;40783;49.710;8.842;2023-04-20T00:52:26;99132.91;;;3.67;88.50
52927;BME280;40783;49.710;8.842;2023-04-20T00:54:54;99130.38;;;3.65;89.40
52927;BME280;40783;49.710;8.842;2023-04-20T00:57:22;99121.16;;;3.47;89.37
52927;BME280;40783;49.710;8.842;2023-04-20T00:59:55;99117.47;;;3.61;89.17
52927;BME280;40783;49.710;8.842;2023-04-20T01:02:20;99115.19;;;3.56;88.65
52927;BME280;40783;49.710;8.842;2023-04-20T01:04:46;99102.94;;;3.55;89.46
52927;BME280;40783;49.710;8.842;2023-04-20T01:07:12;99111.53;;;3.46;89.68
52927;BME280;40783;49.710;8.842;2023-04-20T01:09:39;99100.28;;;3.55;89.86
52927;BME280;40783;49.710;8.842;2023-04-20T01:12:06;99105.75;;;3.40;89.88
52927;BME280;40783;49.710;8.842;2023-04-20T01:14:33;99096.88;;;3.41;89.46
52927;BME280;40783;49.710;8.842;2023-04-20T01:17:03;99104.91;;;3.40;90.06
52927;BME280;40783;49.710;8.842;2023-04-20T01:19:32;99097.97;;;3.26;90.94
52927;BME280;40783;49.710;8.842;2023-04-20T01:21:57;99101.34;;;3.28;91.47
52927;BME280;40783;49.710;8.842;2023-04-20T01:24:23;99099.38;;;3.19;91.61
52927;BME280;40783;49.710;8.842;2023-04-20T01:26:51;99096.53;;;3.22;91.60
52927;BME280;40783;49.710;8.842;2023-04-20T01:29:16;99091.47;;;3.19;91.81
52927;BME280;40783;49.710;8.842;2023-04-20T01:31:42;99087.88;;;3.20;92.15
52927;BME280;40783;49.710;8.842;2023-04-20T01:34:07;99083.94;;;3.25;91.50
52927;BME280;40783;49.710;8.842;2023-04-20T01:36:35;99074.66;;;3.20;91.89
52927;BME280;40783;49.710;8.842;2023-04-20T01:39:00;99068.09;;;3.25;91.32
52927;BME280;40783;49.710;8.842;2023-04-20T01:41:25;99068.22;;;3.35;91.22
52927;BME280;40783;49.710;8.842;2023-04-20T01:43:51;99068.22;;;3.35;90.49
52927;BME280;40783;49.710;8.842;2023-04-20T01:46:16;99060.53;;;3.32;91.28
52927;BME280;40783;49.710;8.842;2023-04-20T01:48:41;99060.31;;;3.35;91.11
52927;BME280;40783;49.710;8.842;2023-04-20T01:51:07;99058.38;;;3.37;90.74
52927;BME280;40783;49.710;8.842;2023-04-20T01:53:36;99051.66;;;3.33;91.04
52927;BME280;40783;49.710;8.842;2023-04-20T01:56:01;99050.19;;;3.29;91.50
52927;BME280;40783;49.710;8.842;2023-04-20T01:58:31;99054.00;;;3.25;91.26
52927;BME280;40783;49.710;8.842;2023-04-20T02:01:00;99065.31;;;3.27;90.80
52927;BME280;40783;49.710;8.842;2023-04-20T02:03:25;99052.56;;;3.21;91.47
52927;BME280;40783;49.710;8.842;2023-04-20T02:05:55;99047.25;;;3.21;91.17
52927;BME280;40783;49.710;8.842;2023-04-20T02:08:22;99063.13;;;3.21;89.76
52927;BME280;40783;49.710;8.842;2023-04-20T02:10:48;99063.69;;;3.13;90.65
52927;BME280;40783;49.710;8.842;2023-04-20T02:13:13;99071.03;;;3.09;91.87
52927;BME280;40783;49.710;8.842;2023-04-20T02:15:39;99057.22;;;3.17;91.30
52927;BME280;40783;49.710;8.842;2023-04-20T02:18:04;99061.22;;;3.23;90.75
52927;BME280;40783;49.710;8.842;2023-04-20T02:20:30;99063.63;;;3.26;90.99
52927;BME280;40783;49.710;8.842;2023-04-20T02:22:58;99056.78;;;3.23;89.79
52927;BME280;40783;49.710;8.842;2023-04-20T02:25:23;99059.94;;;3.29;90.89
52927;BME280;40783;49.710;8.842;2023-04-20T02:27:49;99054.28;;;3.33;89.87
52927;BME280;40783;49.710;8.842;2023-04-20T02:30:16;99052.09;;;3.27;90.89
52927;BME280;40783;49.710;8.842;2023-04-20T02:32:43;99049.81;;;3.22;90.93
52927;BME280;40783;49.710;8.842;2023-04-20T02:35:09;99052.56;;;3.21;90.23
52927;BME280;40783;49.710;8.842;2023-04-20T02:37:34;99047.53;;;3.29;90.12
52927;BME280;40783;49.710;8.842;2023-04-20T02:39:59;99051.66;;;3.33;90.52
52927;BME280;40783;49.710;8.842;2023-04-20T02:42:30;99042.75;;;3.34;91.33
52927;BME280;40783;49.710;8.842;2023-04-20T02:44:57;99036.41;;;3.37;90.84
52927;BME280;40783;49.710;8.842;2023-04-20T02:47:28;99037.25;;;3.37;89.95
52927;BME280;40783;49.710;8.842;2023-04-20T02:49:55;99021.38;;;3.37;90.11
52927;BME280;40783;49.710;8.842;2023-04-20T02:52:23;99028.59;;;3.35;90.48
52927;BME280;40783;49.710;8.842;2023-04-20T02:54:49;99020.88;;;3.32;90.15
52927;BME280;40783;49.710;8.842;2023-04-20T02:57:14;99020.84;;;3.21;92.25
52927;BME280;40783;49.710;8.842;2023-04-20T02:59:42;99013.63;;;3.23;92.23
52927;BME280;40783;49.710;8.842;2023-04-20T03:02:07;99016.50;;;3.08;94.53
52927;BME280;40783;49.710;8.842;2023-04-20T03:04:33;99014.31;;;3.02;94.18
52927;BME280;40783;49.710;8.842;2023-04-20T03:06:58;99016.72;;;3.05;94.83
52927;BME280;40783;49.710;8.842;2023-04-20T03:09:27;99008.34;;;3.11;95.04
52927;BME280;40783;49.710;8.842;2023-04-20T03:11:57;99005.47;;;3.15;94.64
52927;BME280;40783;49.710;8.842;2023-04-20T03:14:25;99000.19;;;3.15;94.51
52927;BME280;40783;49.710;8.842;2023-04-20T03:16:50;99000.13;;;3.03;94.49
52927;BME280;40783;49.710;8.842;2023-04-20T03:19:16;99000.41;;;3.11;95.11
52927;BME280;40783;49.710;8.842;2023-04-20T03:21:46;99002.13;;;3.00;94.48
52927;BME280;40783;49.710;8.842;2023-04-20T03:24:14;98998.22;;;3.05;94.71
52927;BME280;40783;49.710;8.842;2023-04-20T03:26:40;99007.34;;;3.01;95.01
52927;BME280;40783;49.710;8.842;2023-04-20T03:29:06;98988.44;;;2.94;94.51
52927;BME280;40783;49.710;8.842;2023-04-20T03:31:31;98991.13;;;2.81;94.93
52927;BME280;40783;49.710;8.842;2023-04-20T03:33:56;98993.69;;;2.83;95.07
52927;BME280;40783;49.710;8.842;2023-04-20T03:36:24;98987.03;;;2.77;94.93
52927;BME280;40783;49.710;8.842;2023-04-20T03:38:49;98988.06;;;2.88;95.09
52927;BME280;40783;49.710;8.842;2023-04-20T03:41:17;98989.16;;;2.72;94.86
52927;BME280;40783;49.710;8.842;2023-04-20T03:43:42;98990.03;;;2.73;96.06
52927;BME280;40783;49.710;8.842;2023-04-20T03:46:07;98991.88;;;2.84;95.62
52927;BME280;40783;49.710;8.842;2023-04-20T03:48:35;98987.81;;;2.91;94.98
52927;BME280;40783;49.710;8.842;2023-04-20T03:51:00;98988.28;;;2.85;95.17
52927;BME280;40783;49.710;8.842;2023-04-20T03:53:28;98985.84;;;2.81;95.53
52927;BME280;40783;49.710;8.842;2023-04-20T03:55:53;98986.22;;;2.77;94.94
52927;BME280;40783;49.710;8.842;2023-04-20T03:58:19;98991.78;;;2.61;97.32
52927;BME280;40783;49.710;8.842;2023-04-20T04:00:45;98989.34;;;2.58;96.45
52927;BME280;40783;49.710;8.842;2023-04-20T04:03:13;98992.72;;;2.22;99.64
52927;BME280;40783;49.710;8.842;2023-04-20T04:05:39;98982.53;;;2.05;100.00
52927;BME280;40783;49.710;8.842;2023-04-20T04:08:04;98986.22;;;1.89;100.00
52927;BME280;40783;49.710;8.842;2023-04-20T04:10:30;98983.09;;;1.71;100.00
52927;BME280;40783;49.710;8.842;2023-04-20T04:12:55;98991.72;;;1.60;100.00
52927;BME280;40783;49.710;8.842;2023-04-20T04:15:20;98982.81;;;2.13;100.00
52927;BME280;40783;49.710;8.842;2023-04-20T04:17:48;98991.63;;;2.38;100.00
52927;BME280;40783;49.710;8.842;2023-04-20T04:20:13;98984.88;;;2.34;99.82
52927;BME280;40783;49.710;8.842;2023-04-20T04:22:42;98978.59;;;2.48;98.53
52927;BME280;40783;49.710;8.842;2023-04-20T04:25:07;98988.91;;;2.64;97.16
52927;BME280;40783;49.710;8.842;2023-04-20T04:27:35;98980.28;;;2.73;97.36
52927;BME280;40783;49.710;8.842;2023-04-20T04:30:04;98979.84;;;2.79;96.24
52927;BME280;40783;49.710;8.842;2023-04-20T04:32:31;98982.25;;;2.82;96.17
52927;BME280;40783;49.710;8.842;2023-04-20T04:34:58;98986.81;;;2.80;96.29
52927;BME280;40783;49.710;8.842;2023-04-20T04:37:25;98983.72;;;2.87;96.06
52927;BME280;40783;49.710;8.842;2023-04-20T04:39:51;98988.44;;;2.94;95.84
52927;BME280;40783;49.710;8.842;2023-04-20T04:42:16;98984.22;;;2.92;96.00
52927;BME280;40783;49.710;8.842;2023-04-20T04:44:41;98982.78;;;2.88;96.21
52927;BME280;40783;49.710;8.842;2023-04-20T04:47:09;98977.72;;;2.85;97.25
52927;BME280;40783;49.710;8.842;2023-04-20T04:49:35;98975.13;;;2.96;96.40
52927;BME280;40783;49.710;8.842;2023-04-20T04:52:03;98977.69;;;3.09;95.45
52927;BME280;40783;49.710;8.842;2023-04-20T04:54:28;98974.50;;;3.17;94.20
52927;BME280;40783;49.710;8.842;2023-04-20T04:56:54;98969.91;;;3.19;94.24
52927;BME280;40783;49.710;8.842;2023-04-20T04:59:22;98979.28;;;3.11;94.99
52927;BME280;40783;49.710;8.842;2023-04-20T05:01:47;98975.19;;;3.19;94.48
52927;BME280;40783;49.710;8.842;2023-04-20T05:04:12;98977.25;;;2.91;96.55
52927;BME280;40783;49.710;8.842;2023-04-20T05:06:39;98980.56;;;2.81;97.23
52927;BME280;40783;49.710;8.842;2023-04-20T05:09:05;98983.88;;;2.72;98.50
52927;BME280;40783;49.710;8.842;2023-04-20T05:11:30;98984.22;;;2.92;96.94
52927;BME280;40783;49.710;8.842;2023-04-20T05:13:57;98980.97;;;3.13;96.63
52927;BME280;40783;49.710;8.842;2023-04-20T05:16:25;98978.41;;;3.11;97.14
52927;BME280;40783;49.710;8.842;2023-04-20T05:18:52;98982.44;;;3.28;95.97
52927;BME280;40783;49.710;8.842;2023-04-20T05:21:18;98984.59;;;3.34;95.08
52927;BME280;40783;49.710;8.842;2023-04-20T05:23:43;98981.69;;;3.26;96.48
52927;BME280;40783;49.710;8.842;2023-04-20T05:26:08;98981.25;;;3.32;94.94
52927;BME280;40783;49.710;8.842;2023-04-20T05:28:34;98975.25;;;3.41;95.30
52927;BME280;40783;49.710;8.842;2023-04-20T05:31:03;98988.50;;;3.53;94.65
52927;BME280;40783;49.710;8.842;2023-04-20T05:33:29;98980.09;;;3.59;93.72
52927;BME280;40783;49.710;8.842;2023-04-20T05:35:55;98989.97;;;3.68;93.79
52927;BME280;40783;49.710;8.842;2023-04-20T05:38:21;98982.53;;;3.62;92.97
52927;BME280;40783;49.710;8.842;2023-04-20T05:40:47;98966.41;;;3.65;93.93
52927;BME280;40783;49.710;8.842;2023-04-20T05:43:12;98977.22;;;3.62;94.91
52927;BME280;40783;49.710;8.842;2023-04-20T05:45:40;98980.59;;;3.64;94.21
52927;BME280;40783;49.710;8.842;2023-04-20T05:48:05;98978.28;;;3.60;93.75
52927;BME280;40783;49.710;8.842;2023-04-20T05:50:33;98976.97;;;3.54;94.48
52927;BME280;40783;49.710;8.842;2023-04-20T05:52:58;98978.28;;;3.60;95.42
52927;BME280;40783;49.710;8.842;2023-04-20T05:55:23;98980.72;;;3.74;94.82
52927;BME280;40783;49.710;8.842;2023-04-20T05:57:55;98979.81;;;3.39;97.64
52927;BME280;40783;49.710;8.842;2023-04-20T06:00:20;98973.84;;;3.49;95.82
52927;BME280;40783;49.710;8.842;2023-04-20T06:02:46;98972.38;;;3.45;98.35
52927;BME280;40783;49.710;8.842;2023-04-20T06:05:11;98972.88;;;3.50;97.56
52927;BME280;40783;49.710;8.842;2023-04-20T06:07:37;98980.53;;;3.41;99.43
52927;BME280;40783;49.710;8.842;2023-04-20T06:10:05;98977.03;;;3.30;100.00
52927;BME280;40783;49.710;8.842;2023-04-20T06:12:31;98975.97;;;3.44;98.69
52927;BME280;40783;49.710;8.842;2023-04-20T06:14:57;98973.53;;;3.29;100.00
52927;BME280;40783;49.710;8.842;2023-04-20T06:17:22;98988.44;;;3.30;100.00
52927;BME280;40783;49.710;8.842;2023-04-20T06:19:51;98999.69;;;3.09;100.00
52927;BME280;40783;49.710;8.842;2023-04-20T06:22:16;98982.97;;;3.45;100.00
52927;BME280;40783;49.710;8.842;2023-04-20T06:24:42;98995.84;;;3.61;100.00
52927;BME280;40783;49.710;8.842;2023-04-20T06:27:08;98983.34;;;3.63;100.00
52927;BME280;40783;49.710;8.842;2023-04-20T06:29:34;98983.72;;;3.92;99.15
52927;BME280;40783;49.710;8.842;2023-04-20T06:32:02;98989.50;;;3.97;99.42
52927;BME280;40783;49.710;8.842;2023-04-20T06:34:27;98975.91;;;4.25;96.36
52927;BME280;40783;49.710;8.842;2023-04-20T06:36:52;98980.94;;;4.39;96.66
52927;BME280;40783;49.710;8.842;2023-04-20T06:39:18;98976.94;;;4.56;98.83
52927;BME280;40783;49.710;8.842;2023-04-20T06:41:46;98975.97;;;4.46;100.00
52927;BME280;40783;49.710;8.842;2023-04-20T06:44:11;98977.63;;;4.70;100.00
52927;BME280;40783;49.710;8.842;2023-04-20T06:46:36;98976.84;;;4.79;100.00
52927;BME280;40783;49.710;8.842;2023-04-20T06:49:02;98973.19;;;5.45;99.22
52927;BME280;40783;49.710;8.842;2023-04-20T06:51:28;98971.44;;;5.87;95.03
52927;BME280;40783;49.710;8.842;2023-04-20T06:53:56;98976.41;;;5.70;94.39
52927;BME280;40783;49.710;8.842;2023-04-20T06:56:23;98958.28;;;5.75;95.47
52927;BME280;40783;49.710;8.842;2023-04-20T06:58:51;98960.78;;;5.77;96.21
52927;BME280;40783;49.710;8.842;2023-04-20T07:01:16;98965.53;;;6.35;93.62
52927;BME280;40783;49.710;8.842;2023-04-20T07:03:42;98960.16;;;6.16;93.33
52927;BME280;40783;49.710;8.842;2023-04-20T07:06:07;98962.72;;;6.27;91.80
52927;BME280;40783;49.710;8.842;2023-04-20T07:08:36;98954.91;;;6.35;91.90
52927;BME280;40783;49.710;8.842;2023-04-20T07:11:05;98956.28;;;6.30;90.84
52927;BME280;40783;49.710;8.842;2023-04-20T07:13:30;98960.72;;;6.19;92.74
52927;BME280;40783;49.710;8.842;2023-04-20T07:15:57;98959.44;;;6.14;91.28
52927;BME280;40783;49.710;8.842;2023-04-20T07:18:23;98952.34;;;6.24;91.29
52927;BME280;40783;49.710;8.842;2023-04-20T07:20:48;98959.91;;;6.38;92.50
52927;BME280;40783;49.710;8.842;2023-04-20T07:23:13;98962.47;;;6.50;92.43
52927;BME280;40783;49.710;8.842;2023-04-20T07:25:41;98949.28;;;6.38;89.28
52927;BME280;40783;49.710;8.842;2023-04-20T07:28:08;98946.28;;;6.73;87.61
52927;BME280;40783;49.710;8.842;2023-04-20T07:30:36;98946.50;;;6.40;90.70
52927;BME280;40783;49.710;8.842;2023-04-20T07:33:01;98933.69;;;7.14;89.23
52927;BME280;40783;49.710;8.842;2023-04-20T07:35:30;98942.34;;;7.83;86.20
52927;BME280;40783;49.710;8.842;2023-04-20T07:37:58;98938.31;;;8.35;82.88
52927;BME280;40783;49.710;8.842;2023-04-20T07:40:25;98934.25;;;8.59;82.82
52927;BME280;40783;49.710;8.842;2023-04-20T07:42:51;98918.28;;;8.59;78.58
52927;BME280;40783;49.710;8.842;2023-04-20T07:45:16;98931.81;;;8.48;78.98
52927;BME280;40783;49.710;8.842;2023-04-20T07:47:41;98928.72;;;8.52;78.44
52927;BME280;40783;49.710;8.842;2023-04-20T07:50:11;98923.13;;;8.45;79.72
52927;BME280;40783;49.710;8.842;2023-04-20T07:52:36;98919.34;;;8.66;77.85
52927;BME280;40783;49.710;8.842;2023-04-20T07:55:02;98928.94;;;8.59;78.68
52927;BME280;40783;49.710;8.842;2023-04-20T07:57:28;98927.81;;;8.34;80.75
52927;BME280;40783;49.710;8.842;2023-04-20T07:59:53;98928.06;;;8.12;81.93
52927;BME280;40783;49.710;8.842;2023-04-20T08:02:19;98922.56;;;7.86;82.03
52927;BME280;40783;49.710;8.842;2023-04-20T08:04:44;98925.19;;;7.96;83.29
52927;BME280;40783;49.710;8.842;2023-04-20T08:07:10;98928.59;;;7.88;82.42
52927;BME280;40783;49.710;8.842;2023-04-20T08:09:40;98930.50;;;7.68;83.13
52927;BME280;40783;49.710;8.842;2023-04-20T08:12:06;98927.00;;;7.57;81.89
52927;BME280;40783;49.710;8.842;2023-04-20T08:14:31;98923.94;;;7.52;81.06
52927;BME280;40783;49.710;8.842;2023-04-20T08:16:59;98922.38;;;7.60;82.30
52927;BME280;40783;49.710;8.842;2023-04-20T08:19:24;98919.44;;;7.63;82.00
52927;BME280;40783;49.710;8.842;2023-04-20T08:21:50;98914.41;;;7.97;81.83
52927;BME280;40783;49.710;8.842;2023-04-20T08:24:16;98910.31;;;8.31;80.47
52927;BME280;40783;49.710;8.842;2023-04-20T08:26:46;98904.28;;;8.29;79.66
52927;BME280;40783;49.710;8.842;2023-04-20T08:29:11;98907.13;;;8.45;79.04
52927;BME280;40783;49.710;8.842;2023-04-20T08:31:36;98900.91;;;8.55;80.14
52927;BME280;40783;49.710;8.842;2023-04-20T08:34:02;98906.47;;;8.61;79.36
52927;BME280;40783;49.710;8.842;2023-04-20T08:36:27;98905.28;;;8.28;77.29
52927;BME280;40783;49.710;8.842;2023-04-20T08:39:08;98909.97;;;8.80;79.64
52927;BME280;40783;49.710;8.842;2023-04-20T08:41:34;98903.19;;;8.86;76.42
52927;BME280;40783;49.710;8.842;2023-04-20T08:44:00;98903.81;;;8.80;74.36
52927;BME280;40783;49.710;8.842;2023-04-20T08:46:25;98900.16;;;8.81;74.66
52927;BME280;40783;49.710;8.842;2023-04-20T08:48:52;98904.69;;;9.06;74.73
52927;BME280;40783;49.710;8.842;2023-04-20T08:51:26;98903.66;;;8.99;74.57
52927;BME280;40783;49.710;8.842;2023-04-20T08:53:57;98899.59;;;8.77;71.61
52927;BME280;40783;49.710;8.842;2023-04-20T08:56:34;98899.25;;;8.90;71.94
52927;BME280;40783;49.710;8.842;2023-04-20T08:59:05;98895.19;;;8.86;71.67
52927;BME280;40783;49.710;8.842;2023-04-20T09:01:31;98896.56;;;9.34;72.76
52927;BME280;40783;49.710;8.842;2023-04-20T09:03:58;98891.44;;;9.41;71.64
52927;BME280;40783;49.710;8.842;2023-04-20T09:06:26;98892.25;;;9.68;72.08
52927;BME280;40783;49.710;8.842;2023-04-20T09:08:52;98888.72;;;10.02;68.90
52927;BME280;40783;49.710;8.842;2023-04-20T09:11:25;98884.16;;;9.86;68.36
52927;BME280;40783;49.710;8.842;2023-04-20T09:14:03;98887.19;;;9.91;68.38
52927;BME280;40783;49.710;8.842;2023-04-20T09:16:31;98885.34;;;9.57;68.37
52927;BME280;40783;49.710;8.842;2023-04-20T09:18:59;98882.03;;;9.63;71.21
52927;BME280;40783;49.710;8.842;2023-04-20T09:21:27;98879.50;;;9.54;69.51
52927;BME280;40783;49.710;8.842;2023-04-20T09:24:05;98883.28;;;9.43;70.11
52927;BME280;40783;49.710;8.842;2023-04-20T09:26:33;98879.94;;;9.41;70.84
52927;BME280;40783;49.710;8.842;2023-04-20T09:29:03;98870.00;;;9.51;72.08
52927;BME280;40783;49.710;8.842;2023-04-20T09:31:28;98870.06;;;9.41;71.22
52927;BME280;40783;49.710;8.842;2023-04-20T09:34:00;98867.91;;;9.37;70.97
52927;BME280;40783;49.710;8.842;2023-04-20T09:36:43;98864.66;;;9.51;71.44
52927;BME280;40783;49.710;8.842;2023-04-20T09:39:16;98869.03;;;9.34;68.70
52927;BME280;40783;49.710;8.842;2023-04-20T09:41:42;98859.53;;;9.31;69.53
52927;BME280;40783;49.710;8.842;2023-04-20T09:44:09;98860.13;;;9.52;69.82
52927;BME280;40783;49.710;8.842;2023-04-20T09:46:38;98850.94;;;9.46;69.05
52927;BME280;40783;49.710;8.842;2023-04-20T09:49:07;98859.56;;;9.40;69.15
52927;BME280;40783;49.710;8.842;2023-04-20T09:51:36;98845.03;;;9.69;69.86
52927;BME280;40783;49.710;8.842;2023-04-20T09:54:05;98841.03;;;9.73;68.31
52927;BME280;40783;49.710;8.842;2023-04-20T09:56:32;98837.06;;;9.77;66.60
52927;BME280;40783;49.710;8.842;2023-04-20T09:59:03;98831.47;;;9.97;67.37
52927;BME280;40783;49.710;8.842;2023-04-20T10:01:32;98841.81;;;10.00;65.98
52927;BME280;40783;49.710;8.842;2023-04-20T10:04:06;98834.34;;;10.12;66.71
52927;BME280;40783;49.710;8.842;2023-04-20T10:06:35;98835.94;;;10.56;64.85
52927;BME280;40783;49.710;8.842;2023-04-20T10:09:02;98828.25;;;10.69;61.51
52927;BME280;40783;49.710;8.842;2023-04-20T10:14:12;98836.88;;;10.30;64.19
52927;BME280;40783;49.710;8.842;2023-04-20T10:16:40;98830.47;;;10.06;62.94
52927;BME280;40783;49.710;8.842;2023-04-20T10:19:08;98836.97;;;10.03;63.75
52927;BME280;40783;49.710;8.842;2023-04-20T10:21:44;98824.13;;;9.99;63.29
52927;BME280;40783;49.710;8.842;2023-04-20T10:24:10;98826.91;;;10.40;61.45
52927;BME280;40783;49.710;8.842;2023-04-20T10:26:41;98824.91;;;10.42;61.65
52927;BME280;40783;49.710;8.842;2023-04-20T10:29:08;98823.81;;;10.18;62.48
52927;BME280;40783;49.710;8.842;2023-04-20T10:31:40;98816.44;;;10.04;62.84
52927;BME280;40783;49.710;8.842;2023-04-20T10:34:06;98807.28;;;10.15;62.33
52927;BME280;40783;49.710;8.842;2023-04-20T10:36:35;98805.13;;;10.27;62.56
52927;BME280;40783;49.710;8.842;2023-04-20T10:39:16;98812.69;;;10.48;62.10
52927;BME280;40783;49.710;8.842;2023-04-20T10:41:52;98807.81;;;10.35;62.08
52927;BME280;40783;49.710;8.842;2023-04-20T10:44:18;98811.78;;;10.14;60.54
52927;BME280;40783;49.710;8.842;2023-04-20T10:46:47;98803.50;;;10.42;61.36
52927;BME280;40783;49.710;8.842;2023-04-20T10:49:12;98802.69;;;10.75;62.88
52927;BME280;40783;49.710;8.842;2023-04-20T10:51:45;98799.19;;;10.49;59.77
52927;BME280;40783;49.710;8.842;2023-04-20T10:54:13;98800.78;;;10.34;59.39
52927;BME280;40783;49.710;8.842;2023-04-20T10:56:44;98804.47;;;10.33;61.00
52927;BME280;40783;49.710;8.842;2023-04-20T10:59:14;98800.16;;;10.40;60.52
52927;BME280;40783;49.710;8.842;2023-04-20T11:01:41;98791.97;;;10.58;59.87
52927;BME280;40783;49.710;8.842;2023-04-20T11:04:09;98790.41;;;10.14;60.04
52927;BME280;40783;49.710;8.842;2023-04-20T11:06:37;98796.16;;;10.44;61.63
52927;BME280;40783;49.710;8.842;2023-04-20T11:09:14;98784.44;;;10.37;59.88
52927;BME280;40783;49.710;8.842;2023-04-20T11:11:40;98779.75;;;10.64;61.55
52927;BME280;40783;49.710;8.842;2023-04-20T11:14:07;98768.75;;;10.67;61.50
52927;BME280;40783;49.710;8.842;2023-04-20T11:16:33;98775.09;;;10.66;62.00
52927;BME280;40783;49.710;8.842;2023-04-20T11:18:58;98773.56;;;10.96;62.24
52927;BME280;40783;49.710;8.842;2023-04-20T11:21:40;98778.44;;;10.76;61.49
52927;BME280;40783;49.710;8.842;2023-04-20T11:26:48;98766.72;;;10.69;59.24
52927;BME280;40783;49.710;8.842;2023-04-20T11:29:38;98765.06;;;10.68;59.56
52927;BME280;40783;49.710;8.842;2023-04-20T11:32:12;98767.53;;;11.03;60.22
52927;BME280;40783;49.710;8.842;2023-04-20T11:34:44;98758.69;;;10.94;58.15
52927;BME280;40783;49.710;8.842;2023-04-20T11:37:10;98760.59;;;11.25;57.09
52927;BME280;40783;49.710;8.842;2023-04-20T11:39:40;98765.31;;;11.14;56.19
52927;BME280;40783;49.710;8.842;2023-04-20T11:42:05;98756.56;;;11.29;57.42
52927;BME280;40783;49.710;8.842;2023-04-20T11:44:31;98756.09;;;11.25;57.60
52927;BME280;40783;49.710;8.842;2023-04-20T11:46:57;98745.88;;;11.29;57.42
52927;BME280;40783;49.710;8.842;2023-04-20T11:49:27;98751.66;;;11.41;56.80
52927;BME280;40783;49.710;8.842;2023-04-20T11:51:53;98738.50;;;11.31;57.99
52927;BME280;40783;49.710;8.842;2023-04-20T11:54:18;98751.22;;;11.29;57.18
52927;BME280;40783;49.710;8.842;2023-04-20T11:56:48;98749.44;;;11.61;57.14
52927;BME280;40783;49.710;8.842;2023-04-20T11:59:14;98747.84;;;11.35;56.69
52927;BME280;40783;49.710;8.842;2023-04-20T12:01:40;98749.16;;;11.48;56.19
52927;BME280;40783;49.710;8.842;2023-04-20T12:04:08;98749.16;;;11.48;56.63
52927;BME280;40783;49.710;8.842;2023-04-20T12:06:33;98747.94;;;11.10;56.42
52927;BME280;40783;49.710;8.842;2023-04-20T12:09:01;98746.28;;;11.09;56.83
52927;BME280;40783;49.710;8.842;2023-04-20T12:11:29;98736.19;;;11.20;57.03
52927;BME280;40783;49.710;8.842;2023-04-20T12:13:54;98745.94;;;11.12;56.97
52927;BME280;40783;49.710;8.842;2023-04-20T12:16:20;98743.97;;;10.98;56.14
52927;BME280;40783;49.710;8.842;2023-04-20T12:18:48;98736.63;;;10.83;56.60
52927;BME280;40783;49.710;8.842;2023-04-20T12:21:16;98734.59;;;10.94;56.13
52927;BME280;40783;49.710;8.842;2023-04-20T12:23:41;98740.03;;;11.25;57.00
52927;BME280;40783;49.710;8.842;2023-04-20T12:26:08;98733.94;;;11.00;55.82
52927;BME280;40783;49.710;8.842;2023-04-20T12:28:33;98743.03;;;11.31;56.79
52927;BME280;40783;49.710;8.842;2023-04-20T12:30:59;98741.22;;;11.14;55.94
52927;BME280;40783;49.710;8.842;2023-04-20T12:33:24;98740.59;;;11.12;56.81
52927;BME280;40783;49.710;8.842;2023-04-20T12:35:50;98746.63;;;10.98;58.29
52927;BME280;40783;49.710;8.842;2023-04-20T12:38:16;98754.03;;;10.63;56.73
52927;BME280;40783;49.710;8.842;2023-04-20T12:40:44;98762.41;;;10.60;57.80
52927;BME280;40783;49.710;8.842;2023-04-20T12:43:11;98752.22;;;10.63;56.38
52927;BME280;40783;49.710;8.842;2023-04-20T12:45:39;98756.03;;;10.28;56.33
52927;BME280;40783;49.710;8.842;2023-04-20T12:48:04;98765.03;;;10.35;57.46
52927;BME280;40783;49.710;8.842;2023-04-20T12:50:29;98760.84;;;10.16;57.01
52927;BME280;40783;49.710;8.842;2023-04-20T12:52:57;98749.66;;;10.29;56.70
52927;BME280;40783;49.710;8.842;2023-04-20T12:55:26;98755.69;;;10.22;56.69
52927;BME280;40783;49.710;8.842;2023-04-20T12:57:54;98748.03;;;10.44;57.25
52927;BME280;40783;49.710;8.842;2023-04-20T13:00:19;98756.69;;;10.30;55.86
52927;BME280;40783;49.710;8.842;2023-04-20T13:02:49;98751.06;;;10.49;56.63
52927;BME280;40783;49.710;8.842;2023-04-20T13:05:30;98761.03;;;10.72;56.71
52927;BME280;40783;49.710;8.842;2023-04-20T13:08:00;98754.03;;;10.30;57.55
52927;BME280;40783;49.710;8.842;2023-04-20T13:10:28;98757.53;;;10.22;55.99
52927;BME280;40783;49.710;8.842;2023-04-20T13:12:56;98766.41;;;10.39;56.37